Time;durP1;ratioP1;P1;durP2;ratioP2;P2;SDS_P1;SDS_P2;PMS_P1;PMS_P2;Temp;Humidity;BMP_temperature;BMP_pressure;BME280_temperature;BME280_humidity;BME280_pressure;Samples;Min_cycle;Max_cycle;Signal;HPM_P1;HPM_P2
2023/09/23 00:02:11;;;;;;;13.47;12.33;;;;;;;12.87;100.00;100633.34;5231125;28;20037;-73
2023/09/23 00:04:42;;;;;;;13.13;12.03;;;;;;;13.02;100.00;100643.69;5232756;28;20034;-72
2023/09/23 00:07:14;;;;;;;14.10;12.90;;;;;;;13.09;100.00;100642.25;5232697;28;20041;-71
2023/09/23 00:09:45;;;;;;;12.63;11.63;;;;;;;13.08;100.00;100648.47;5231255;28;20026;-72
2023/09/23 00:12:16;;;;;;;12.17;11.03;;;;;;;13.07;100.00;100650.25;5232261;28;20180;-71
2023/09/23 00:14:48;;;;;;;14.30;13.13;;;;;;;13.12;100.00;100651.72;5232339;28;20041;-70
2023/09/23 00:17:19;;;;;;;12.77;11.73;;;;;;;12.85;100.00;100643.13;5226059;28;20416;-71
2023/09/23 00:19:51;;;;;;;12.83;11.47;;;;;;;13.06;100.00;100647.75;5233347;28;20136;-72
2023/09/23 00:22:22;;;;;;;12.67;11.67;;;;;;;13.08;100.00;100651.13;5234100;28;20029;-71
2023/09/23 00:24:54;;;;;;;13.03;11.77;;;;;;;13.09;100.00;100644.06;5231072;28;20068;-71
2023/09/23 00:27:28;;;;;;;13.57;12.37;;;;;;;13.02;100.00;100647.13;5232665;28;20025;-71
2023/09/23 00:30:00;;;;;;;13.02;11.30;;;;;;;13.12;100.00;100651.72;5230607;28;20396;-71
2023/09/23 00:32:34;;;;;;;12.43;11.33;;;;;;;12.81;100.00;100653.00;5230979;28;20025;-71
2023/09/23 00:35:06;;;;;;;13.00;11.60;;;;;;;12.79;100.00;100647.03;5232533;28;20083;-71
2023/09/23 00:37:40;;;;;;;13.80;11.37;;;;;;;12.77;100.00;100653.34;5233228;28;20025;-70
2023/09/23 00:40:16;;;;;;;11.80;10.70;;;;;;;12.92;100.00;100661.91;5231429;28;20472;-70
2023/09/23 00:42:47;;;;;;;11.97;10.80;;;;;;;12.98;100.00;100658.84;5233016;28;20033;-72
2023/09/23 00:45:22;;;;;;;11.43;10.33;;;;;;;12.98;100.00;100671.16;5229769;28;20021;-70
2023/09/23 00:47:56;;;;;;;12.18;9.65;;;;;;;13.06;100.00;100679.31;5243802;28;20017;-71
2023/09/23 00:50:29;;;;;;;11.30;9.70;;;;;;;12.88;100.00;100670.97;5231329;28;20370;-71
2023/09/23 00:53:00;;;;;;;10.60;9.60;;;;;;;12.96;100.00;100663.38;5232686;28;20022;-72
2023/09/23 00:55:39;;;;;;;11.43;9.17;;;;;;;12.91;100.00;100666.34;5225322;28;20115;-71
2023/09/23 00:58:14;;;;;;;10.90;9.20;;;;;;;12.71;100.00;100654.63;5232848;28;20017;-71
2023/09/23 01:00:46;;;;;;;11.03;9.50;;;;;;;12.79;100.00;100672.50;5233043;28;20024;-72
2023/09/23 01:03:18;;;;;;;9.67;8.67;;;;;;;12.83;100.00;100672.16;5232557;28;20029;-71
2023/09/23 01:06:04;;;;;;;10.23;9.10;;;;;;;12.89;100.00;100672.66;5231730;28;20045;-71
2023/09/23 01:08:38;;;;;;;11.27;8.50;;;;;;;12.84;100.00;100670.38;5229651;28;20033;-72
2023/09/23 01:11:10;;;;;;;13.73;8.70;;;;;;;12.72;100.00;100651.06;5228871;23;20433;-81
2023/09/23 01:13:43;;;;;;;10.83;8.53;;;;;;;12.58;100.00;100644.19;5205923;28;20018;-81
2023/09/23 01:16:14;;;;;;;11.60;7.67;;;;;;;12.63;100.00;100651.72;5197668;28;20038;-81
2023/09/23 01:18:48;;;;;;;12.33;8.40;;;;;;;12.63;100.00;100647.31;5191604;28;20041;-81
2023/09/23 01:21:21;;;;;;;8.32;7.47;;;;;;;12.62;100.00;100639.56;5207300;28;20018;-82
2023/09/23 01:23:53;;;;;;;9.67;7.53;;;;;;;12.61;100.00;100664.97;5219202;28;20021;-81
2023/09/23 01:26:24;;;;;;;11.43;7.37;;;;;;;12.63;100.00;100662.22;5192822;28;20022;-81
2023/09/23 01:29:04;;;;;;;8.50;7.60;;;;;;;12.95;100.00;100698.50;5192223;28;20038;-81
2023/09/23 01:31:36;;;;;;;13.27;7.00;;;;;;;12.74;100.00;100667.53;5205957;28;20023;-81
2023/09/23 01:34:07;;;;;;;8.47;6.90;;;;;;;12.76;100.00;100677.97;5203697;28;20072;-80
2023/09/23 01:36:38;;;;;;;9.47;6.90;;;;;;;12.64;100.00;100669.16;5212461;28;20081;-82
2023/09/23 01:39:11;;;;;;;9.40;7.27;;;;;;;12.49;100.00;100669.31;5198928;28;20105;-81
2023/09/23 01:41:42;;;;;;;8.03;6.50;;;;;;;12.56;100.00;100675.81;5211121;28;20018;-81
2023/09/23 01:44:14;;;;;;;9.90;6.53;;;;;;;12.58;100.00;100671.28;5199631;28;20474;-81
2023/09/23 01:46:46;;;;;;;8.63;6.57;;;;;;;12.51;100.00;100666.56;5209739;28;20021;-82
2023/09/23 01:49:17;;;;;;;12.40;6.17;;;;;;;12.54;100.00;100661.94;5211619;28;20049;-81
2023/09/23 01:51:49;;;;;;;13.00;6.90;;;;;;;12.79;100.00;100714.53;5212527;28;20057;-82
2023/09/23 01:54:20;;;;;;;9.67;5.93;;;;;;;12.47;100.00;100663.31;5200445;28;20030;-82
2023/09/23 01:56:54;;;;;;;11.23;6.20;;;;;;;12.46;100.00;100662.47;5206118;28;20524;-81
2023/09/23 01:59:26;;;;;;;8.82;5.88;;;;;;;12.47;100.00;100679.09;5207779;28;20026;-81
2023/09/23 02:01:58;;;;;;;14.47;6.50;;;;;;;12.61;100.00;100693.03;5205422;28;20069;-81
2023/09/23 02:04:30;;;;;;;8.83;6.10;;;;;;;12.67;100.00;100705.75;5192138;28;20022;-81
2023/09/23 02:07:01;;;;;;;9.40;5.27;;;;;;;12.63;100.00;100702.50;5205647;28;20080;-81
2023/09/23 02:09:37;;;;;;;10.80;6.20;;;;;;;12.55;100.00;100686.44;5201880;28;20061;-83
2023/09/23 02:12:08;;;;;;;14.23;6.07;;;;;;;12.32;100.00;100667.88;5228929;28;20076;-83
2023/09/23 02:14:40;;;;;;;8.73;5.87;;;;;;;12.68;100.00;100725.81;5201498;28;20067;-82
2023/09/23 02:17:15;;;;;;;10.20;5.63;;;;;;;12.38;100.00;100685.81;5210385;28;20026;-82
2023/09/23 02:19:50;;;;;;;9.27;5.80;;;;;;;12.25;100.00;100692.88;5211717;28;20033;-83
2023/09/23 02:22:22;;;;;;;9.90;5.27;;;;;;;12.31;100.00;100690.66;5196274;28;20109;-82
2023/09/23 02:24:54;;;;;;;8.50;4.90;;;;;;;12.44;100.00;100721.34;5214792;28;20081;-82
2023/09/23 02:27:26;;;;;;;10.03;4.70;;;;;;;12.55;100.00;100750.31;5223845;28;20042;-83
2023/09/23 02:29:57;;;;;;;10.50;5.07;;;;;;;12.29;100.00;100694.34;5225180;28;20052;-82
2023/09/23 02:32:31;;;;;;;10.10;5.40;;;;;;;12.33;100.00;100735.22;5222793;28;20036;-83
2023/09/23 02:35:02;;;;;;;10.55;4.82;;;;;;;12.25;100.00;100708.66;5220872;28;20153;-83
2023/09/23 02:37:34;;;;;;;7.13;5.03;;;;;;;12.28;100.00;100709.28;5235261;28;20480;-83
2023/09/23 02:40:12;;;;;;;8.73;4.40;;;;;;;12.26;100.00;100732.16;5214763;28;20029;-83
2023/09/23 02:42:46;;;;;;;8.00;4.97;;;;;;;12.15;100.00;100721.56;5216836;28;20132;-83
2023/09/23 02:45:23;;;;;;;7.47;4.38;;;;;;;12.36;100.00;100752.56;5216751;28;20030;-82
2023/09/23 02:47:58;;;;;;;8.07;4.23;;;;;;;12.29;100.00;100750.31;5215380;28;20398;-84
2023/09/23 02:50:30;;;;;;;;;;;;;;;12.81;100.00;100766.03;5216439;28;20120;-83
2023/09/23 02:53:01;;;;;;;10.50;4.27;;;;;;;12.41;100.00;100771.47;5215947;28;19997;-84
2023/09/23 02:55:35;;;;;;;7.93;4.00;;;;;;;12.24;100.00;100744.56;5216047;28;20657;-81
2023/09/23 02:58:07;;;;;;;9.35;4.38;;;;;;;12.08;100.00;100724.56;5215283;28;20084;-82
2023/09/23 03:00:40;;;;;;;7.60;3.90;;;;;;;12.39;100.00;100778.59;5216370;28;20025;-82
2023/09/23 03:03:19;;;;;;;11.53;4.27;;;;;;;12.20;100.00;100756.22;5215017;28;20026;-82
2023/09/23 03:05:57;;;;;;;7.07;4.03;;;;;;;12.22;100.00;100755.16;5214831;28;20025;-82
2023/09/23 03:08:30;;;;;;;9.30;4.07;;;;;;;11.87;100.00;100724.25;5215494;28;20072;-84
2023/09/23 03:11:06;;;;;;;7.97;3.53;;;;;;;11.85;100.00;100734.84;5213072;28;20124;-81
2023/09/23 03:13:39;;;;;;;11.27;4.03;;;;;;;12.10;100.00;100756.00;5212309;28;20029;-81
2023/09/23 03:16:13;;;;;;;8.03;4.00;;;;;;;12.19;100.00;100772.91;5215219;28;20096;-81
2023/09/23 03:18:59;;;;;;;10.65;4.03;;;;;;;12.05;100.00;100743.16;5215032;28;20045;-82
2023/09/23 03:21:31;;;;;;;6.10;3.80;;;;;;;12.06;100.00;100751.88;5214145;28;20738;-82
2023/09/23 03:24:02;;;;;;;8.43;3.23;;;;;;;12.09;100.00;100768.31;5210909;28;20018;-82
2023/09/23 03:26:34;;;;;;;9.40;4.30;;;;;;;12.06;100.00;100765.84;5194768;28;20022;-81
2023/09/23 03:29:06;;;;;;;9.40;3.33;;;;;;;11.96;100.00;100770.03;5208086;28;20087;-82
2023/09/23 03:31:38;;;;;;;6.10;3.97;;;;;;;11.95;100.00;100758.69;5202813;28;20401;-82
2023/09/23 03:34:17;;;;;;;7.83;3.60;;;;;;;12.18;100.00;100773.88;5214661;28;20025;-83
2023/09/23 03:36:51;;;;;;;9.20;3.73;;;;;;;12.01;100.00;100764.47;5213145;28;20465;-83
2023/09/23 03:39:24;;;;;;;8.07;3.88;;;;;;;12.25;100.00;100795.28;5214628;28;20057;-83
2023/09/23 03:41:56;;;;;;;8.50;3.47;;;;;;;12.05;100.00;100782.53;5213001;28;20022;-83
2023/09/23 03:44:27;;;;;;;8.43;3.23;;;;;;;12.09;100.00;100785.84;5214850;28;20038;-83
2023/09/23 03:47:01;;;;;;;8.30;3.40;;;;;;;12.08;100.00;100778.84;5213734;28;20026;-83
2023/09/23 03:49:34;;;;;;;7.87;3.27;;;;;;;12.22;100.00;100809.47;5214571;28;20040;-83
2023/09/23 03:52:13;;;;;;;12.43;4.03;;;;;;;12.13;100.00;100796.97;5214932;28;20465;-81
2023/09/23 03:54:45;;;;;;;10.73;3.53;;;;;;;12.08;100.00;100799.84;5200645;28;20064;-83
2023/09/23 03:57:16;;;;;;;12.47;3.70;;;;;;;12.15;100.00;100805.59;5215569;28;20029;-83
2023/09/23 03:59:49;;;;;;;15.10;5.27;;;;;;;12.07;100.00;100801.66;5213215;28;20033;-82
2023/09/23 04:02:21;;;;;;;9.00;3.20;;;;;;;12.20;100.00;100819.25;5215133;28;20025;-82
2023/09/23 04:04:53;;;;;;;8.83;3.30;;;;;;;12.02;100.00;100802.91;5214954;28;20466;-82
2023/09/23 04:07:25;;;;;;;10.00;3.90;;;;;;;11.76;100.00;100756.47;5214474;28;20060;-83
2023/09/23 04:09:56;;;;;;;10.30;3.83;;;;;;;12.10;100.00;100819.84;5210480;28;20049;-85
2023/09/23 04:12:28;;;;;;;11.60;3.53;;;;;;;12.05;100.00;100803.53;5203995;28;20405;-84
2023/09/23 04:14:59;;;;;;;8.50;3.73;;;;;;;12.08;100.00;100813.81;5200818;28;20027;-84
2023/09/23 04:17:34;;;;;;;6.53;3.60;;;;;;;12.23;100.00;100826.91;5214399;28;20481;-84
2023/09/23 04:20:09;;;;;;;;;;;;;;;12.58;100.00;100834.16;5201052;28;20775;-85
2023/09/23 04:22:42;;;;;;;;;;;;;;;12.57;100.00;100832.47;5213835;28;19916;-84
2023/09/23 04:25:14;;;;;;;8.27;3.10;;;;;;;12.12;100.00;100842.53;5229228;28;19917;-85
2023/09/23 04:27:47;;;;;;;15.90;4.57;;;;;;;12.02;100.00;100827.38;5213390;28;20022;-85
2023/09/23 04:30:19;;;;;;;10.50;3.73;;;;;;;12.05;100.00;100842.91;5215306;28;20018;-84
2023/09/23 04:32:55;;;;;;;10.27;4.13;;;;;;;11.95;100.00;100832.19;5214836;28;20044;-84
2023/09/23 04:35:31;;;;;;;11.17;4.10;;;;;;;11.88;100.00;100827.44;5209361;28;20023;-84
2023/09/23 04:38:03;;;;;;;6.57;3.37;;;;;;;11.71;100.00;100803.97;5214029;28;20026;-85
2023/09/23 04:40:35;;;;;;;8.10;3.60;;;;;;;11.82;100.00;100845.25;5212448;28;20491;-85
2023/09/23 04:43:06;;;;;;;8.37;3.13;;;;;;;11.83;100.00;100846.94;5213588;28;20113;-84
2023/09/23 04:45:38;;;;;;;10.80;4.27;;;;;;;11.85;100.00;100858.16;5215275;28;20029;-85
2023/09/23 04:48:09;;;;;;;7.07;3.70;;;;;;;11.85;100.00;100858.16;5229316;28;20389;-86
2023/09/23 04:50:44;;;;;;;7.27;4.27;;;;;;;11.72;100.00;100845.03;5214951;28;20033;-85
2023/09/23 04:53:16;;;;;;;10.15;4.90;;;;;;;11.55;100.00;100814.66;5213744;28;20028;-85
2023/09/23 04:55:47;;;;;;;6.33;3.57;;;;;;;11.59;100.00;100823.16;5212140;28;20490;-85
2023/09/23 04:58:19;;;;;;;10.37;3.70;;;;;;;11.73;100.00;100843.22;5213991;28;20022;-85
2023/09/23 05:00:54;;;;;;;7.20;3.43;;;;;;;11.49;100.00;100815.88;5214504;28;20033;-85
2023/09/23 05:03:29;;;;;;;10.27;3.47;;;;;;;11.74;100.00;100864.16;5213334;28;20033;-83
2023/09/23 05:06:01;;;;;;;9.40;4.13;;;;;;;11.84;100.00;100888.00;5213495;28;20108;-83
2023/09/23 05:08:32;;;;;;;8.43;3.70;;;;;;;11.64;100.00;100867.44;5211868;28;20977;-83
2023/09/23 05:11:06;;;;;;;7.20;4.00;;;;;;;11.54;100.00;100849.66;5212717;28;20129;-84
2023/09/23 05:13:37;;;;;;;5.85;4.00;;;;;;;11.81;100.00;100896.06;5214556;28;20038;-82
2023/09/23 05:16:09;;;;;;;14.30;4.07;;;;;;;11.59;100.00;100863.31;5211885;28;20080;-84
2023/09/23 05:18:41;;;;;;;11.90;3.80;;;;;;;11.67;100.00;100886.47;5213668;28;20469;-82
2023/09/23 05:21:13;;;;;;;8.80;4.83;;;;;;;11.48;100.00;100863.19;5212792;28;20097;-82
2023/09/23 05:23:49;;;;;;;7.57;3.83;;;;;;;11.66;100.00;100883.94;5212827;28;20076;-82
2023/09/23 05:26:23;;;;;;;9.43;4.43;;;;;;;11.76;100.00;100911.28;5212529;28;20604;-82
2023/09/23 05:28:56;;;;;;;9.48;4.78;;;;;;;11.62;100.00;100899.03;5212062;28;20378;-83
2023/09/23 05:31:28;;;;;;;12.67;3.73;;;;;;;11.74;100.00;100928.88;5200718;28;20022;-82
2023/09/23 05:34:00;;;;;;;7.93;4.03;;;;;;;11.59;100.00;100902.66;5199262;28;20600;-82
2023/09/23 05:36:32;;;;;;;9.93;3.97;;;;;;;11.53;100.00;100921.44;5213657;28;20105;-82
2023/09/23 05:39:06;;;;;;;5.77;4.03;;;;;;;11.54;100.00;100925.72;5227520;28;20018;-83
2023/09/23 05:41:40;;;;;;;9.20;3.90;;;;;;;11.50;100.00;100917.22;5212118;28;20109;-83
2023/09/23 05:44:13;;;;;;;7.07;3.63;;;;;;;11.28;100.00;100890.63;5213141;28;20037;-82
2023/09/23 05:46:48;;;;;;;8.13;3.57;;;;;;;11.59;100.00;100952.50;5211985;28;20057;-83
2023/09/23 05:49:19;;;;;;;6.63;3.43;;;;;;;11.38;100.00;100924.06;5214050;28;20413;-83
2023/09/23 05:51:54;;;;;;;11.50;5.27;;;;;;;11.55;100.00;100961.53;5212467;28;20075;-83
2023/09/23 05:54:25;;;;;;;;;;;;;;;12.09;100.00;100975.69;5212282;28;20014;-83
2023/09/23 05:56:57;;;;;;;11.50;4.40;;;;;;;11.48;100.00;100936.63;5193283;28;20818;-84
2023/09/23 05:59:31;;;;;;;9.20;4.33;;;;;;;11.45;100.00;100923.69;5222401;28;20036;-84
2023/09/23 06:02:06;;;;;;;9.73;3.73;;;;;;;11.46;100.00;100946.34;5198863;28;20358;-83
2023/09/23 06:04:37;;;;;;;;;;;;;;;12.13;100.00;100983.38;5198953;28;20026;-81
2023/09/23 06:07:11;;;;;;;7.97;3.70;;;;;;;11.60;100.00;100958.59;5205983;28;19909;-84
2023/09/23 06:09:43;;;;;;;11.13;4.13;;;;;;;11.48;100.00;100954.97;5207793;28;20026;-82
2023/09/23 06:12:17;;;;;;;14.27;5.07;;;;;;;11.71;100.00;100982.38;5232676;28;20140;-83
2023/09/23 06:14:48;;;;;;;9.13;4.03;;;;;;;11.55;100.00;100968.53;5215838;28;20029;-83
2023/09/23 06:17:20;;;;;;;8.07;4.63;;;;;;;11.66;100.00;100983.63;5219493;28;20022;-83
2023/09/23 06:19:55;;;;;;;12.07;4.13;;;;;;;11.66;100.00;100983.63;5216400;28;20096;-83
2023/09/23 06:22:33;;;;;;;8.70;4.17;;;;;;;11.79;100.00;100995.03;5232657;28;20025;-84
2023/09/23 06:25:05;;;;;;;8.60;4.87;;;;;;;11.71;100.00;101002.53;5215833;28;20088;-83
2023/09/23 06:27:39;;;;;;;5.97;3.90;;;;;;;11.47;100.00;100979.50;5211904;28;20029;-83
2023/09/23 06:30:15;;;;;;;7.82;3.92;;;;;;;11.69;100.00;101007.03;5197132;28;20097;-83
2023/09/23 06:32:48;;;;;;;8.87;4.23;;;;;;;11.69;100.00;100993.91;5230097;28;20042;-83
2023/09/23 06:35:22;;;;;;;13.18;4.40;;;;;;;11.86;100.00;101000.72;5217274;28;20560;-82
2023/09/23 06:37:54;;;;;;;11.32;4.15;;;;;;;11.80;100.00;100994.06;5216210;28;20028;-84
2023/09/23 06:40:25;;;;;;;7.23;3.63;;;;;;;11.80;100.00;100999.31;5214055;28;20105;-85
2023/09/23 06:43:01;;;;;;;10.90;4.27;;;;;;;11.96;100.00;101021.97;5217238;28;20033;-84
2023/09/23 06:45:36;;;;;;;12.07;4.23;;;;;;;12.02;100.00;101042.63;5215264;28;20018;-83
2023/09/23 06:48:07;;;;;;;7.30;4.40;;;;;;;12.13;100.00;101057.69;5216139;28;20041;-83
2023/09/23 06:50:41;;;;;;;9.07;3.90;;;;;;;12.06;100.00;101033.59;5216673;28;20022;-83
2023/09/23 06:53:15;;;;;;;9.90;3.58;;;;;;;11.97;100.00;101019.25;5214118;28;20025;-84
2023/09/23 06:55:52;;;;;;;10.00;4.05;;;;;;;12.09;100.00;101020.31;5217211;28;20394;-84
2023/09/23 06:58:24;;;;;;;7.50;4.43;;;;;;;12.07;100.00;101034.44;5228787;28;20811;-85
2023/09/23 07:00:55;;;;;;;11.03;4.13;;;;;;;12.30;100.00;101055.78;5215187;28;20037;-85
2023/09/23 07:03:27;;;;;;;9.47;4.67;;;;;;;12.20;100.00;101029.28;5213595;28;20056;-81
2023/09/23 07:05:58;;;;;;;10.50;4.60;;;;;;;12.56;100.00;101083.03;5207510;28;20484;-80
2023/09/23 07:08:29;;;;;;;7.33;3.80;;;;;;;12.64;100.00;101085.13;5211915;28;20153;-81
2023/09/23 07:11:01;;;;;;;11.63;3.90;;;;;;;12.60;100.00;101067.91;5221430;28;20042;-81
2023/09/23 07:13:32;;;;;;;10.30;4.70;;;;;;;12.60;100.00;101077.56;5219358;28;20025;-82
2023/09/23 07:16:04;;;;;;;10.20;3.93;;;;;;;12.78;100.00;101091.28;5220748;28;20524;-84
2023/09/23 07:18:35;;;;;;;10.23;4.33;;;;;;;12.62;100.00;101075.69;5219343;28;20056;-83
2023/09/23 07:21:09;;;;;;;7.13;4.17;;;;;;;12.77;100.00;101095.72;5215460;28;20671;-83
2023/09/23 07:23:41;;;;;;;;;;;;;;;13.16;100.00;101105.47;5213583;28;20113;-83
2023/09/23 07:26:20;;;;;;;7.87;4.63;;;;;;;12.97;100.00;101105.88;5216567;28;20012;-83
2023/09/23 07:28:52;;;;;;;8.93;4.53;;;;;;;12.88;100.00;101092.34;5213444;28;20029;-84
2023/09/23 07:31:24;;;;;;;10.03;4.77;;;;;;;12.98;100.00;101092.59;5214979;28;20037;-82
2023/09/23 07:33:58;;;;;;;8.03;3.93;;;;;;;13.17;100.00;101109.78;5211814;28;20029;-82
2023/09/23 07:36:30;;;;;;;;;;;;;;;13.66;100.00;101125.84;5210041;28;20030;-82
2023/09/23 07:39:01;;;;;;;7.90;3.87;;;;;;;13.31;100.00;101114.13;5213559;28;19924;-82
2023/09/23 07:41:33;;;;;;;6.17;3.80;;;;;;;13.53;100.00;101146.88;5213847;28;20026;-82
2023/09/23 07:44:05;;;;;;;11.27;4.23;;;;;;;13.47;100.00;101124.47;5211422;28;20021;-81
2023/09/23 07:46:37;;;;;;;11.83;4.27;;;;;;;13.68;100.00;101121.34;5213692;28;20861;-79
2023/09/23 07:49:08;;;;;;;11.13;4.50;;;;;;;13.90;100.00;101120.69;5212691;28;20142;-79
2023/09/23 07:51:40;;;;;;;6.63;4.07;;;;;;;14.21;100.00;101148.44;5206244;28;20038;-79
2023/09/23 07:54:11;;;;;;;10.30;4.27;;;;;;;14.41;100.00;101149.66;5210110;28;20473;-78
2023/09/23 07:56:42;;;;;;;6.53;3.50;;;;;;;14.68;100.00;101156.53;5212356;28;20374;-78
2023/09/23 07:59:14;;;;;;;10.70;4.07;;;;;;;14.75;100.00;101136.69;5202209;28;20038;-79
2023/09/23 08:01:45;;;;;;;6.73;3.20;;;;;;;15.12;100.00;101162.16;5210453;28;20026;-79
2023/09/23 08:04:16;;;;;;;7.77;3.63;;;;;;;15.30;100.00;101177.56;5212638;28;20033;-80
2023/09/23 08:06:48;;;;;;;6.43;3.10;;;;;;;15.24;100.00;101127.88;5206974;28;20026;-80
2023/09/23 08:09:19;;;;;;;11.07;3.50;;;;;;;15.71;100.00;101164.81;5193671;28;20037;-78
2023/09/23 08:11:50;;;;;;;6.83;3.40;;;;;;;16.21;100.00;101179.50;5194745;28;20049;-79
2023/09/23 08:14:26;;;;;;;10.70;3.77;;;;;;;16.50;100.00;101183.47;5208856;28;20091;-82
2023/09/23 08:16:57;;;;;;;7.83;3.00;;;;;;;16.65;100.00;101172.63;5213893;28;20081;-82
2023/09/23 08:19:29;;;;;;;5.53;2.63;;;;;;;17.05;100.00;101132.31;5208342;28;20506;-82
2023/09/23 08:22:00;;;;;;;5.73;2.90;;;;;;;17.63;100.00;101139.94;5197368;28;20031;-81
2023/09/23 08:24:32;;;;;;;10.83;4.10;;;;;;;18.18;100.00;101175.91;5212621;28;20028;-85
2023/09/23 08:27:12;;;;;;;6.00;2.53;;;;;;;18.93;100.00;101179.13;5214062;28;20425;-84
2023/09/23 08:29:44;;;;;;;8.60;2.53;;;;;;;19.28;100.00;101175.09;5228305;28;20022;-84
2023/09/23 08:32:15;;;;;;;8.10;3.27;;;;;;;20.03;100.00;101192.09;5213465;28;20029;-83
2023/09/23 08:34:47;;;;;;;9.73;2.72;;;;;;;19.78;100.00;101173.16;5214594;28;20030;-85
2023/09/23 08:37:19;;;;;;;8.47;2.40;;;;;;;20.30;100.00;101214.41;5214753;28;20108;-85
2023/09/23 08:39:51;;;;;;;9.77;2.60;;;;;;;20.49;100.00;101201.97;5209728;28;20036;-80
2023/09/23 08:42:27;;;;;;;7.28;2.70;;;;;;;20.88;100.00;101200.88;5211207;28;20143;-80
2023/09/23 08:44:59;;;;;;;6.05;1.90;;;;;;;21.35;100.00;101200.78;5206044;28;20041;-79
2023/09/23 08:47:38;;;;;;;9.50;2.35;;;;;;;21.62;100.00;101223.81;5211129;28;20037;-80
2023/09/23 08:50:15;;;;;;;7.30;2.13;;;;;;;21.36;100.00;101202.47;5206102;28;20033;-80
2023/09/23 08:52:49;;;;;;;6.05;2.30;;;;;;;21.00;100.00;101217.50;5210010;28;20030;-80
2023/09/23 08:55:24;;;;;;;6.93;2.15;;;;;;;20.57;100.00;101213.69;5210439;28;20124;-80
2023/09/23 08:58:01;;;;;;;9.70;2.72;;;;;;;20.25;100.00;101259.22;5210905;28;20032;-80
2023/09/23 09:00:33;;;;;;;4.88;2.00;;;;;;;19.77;100.00;101229.13;5207221;28;20062;-79
2023/09/23 09:03:07;;;;;;;7.35;2.08;;;;;;;19.79;100.00;101209.38;5214389;28;20528;-78
2023/09/23 09:05:40;;;;;;;6.00;2.08;;;;;;;19.52;100.00;101226.06;5212586;28;20018;-80
2023/09/23 09:08:14;;;;;;;6.60;1.98;;;;;;;19.39;100.00;101244.97;5200097;28;20038;-78
2023/09/23 09:10:46;;;;;;;8.82;2.28;;;;;;;19.65;100.00;101234.59;5200352;28;20504;-79
2023/09/23 09:13:23;;;;;;;5.33;1.77;;;;;;;19.80;100.00;101224.34;5212124;28;20077;-79
2023/09/23 09:16:07;;;;;;;6.43;2.20;;;;;;;20.74;100.00;101274.09;5216524;28;20032;-79
2023/09/23 09:18:38;;;;;;;5.00;2.25;;;;;;;21.34;100.00;101271.91;5205186;28;20048;-77
2023/09/23 09:21:09;;;;;;;9.00;1.95;;;;;;;21.91;100.00;101269.84;5209365;28;20409;-77
2023/09/23 09:23:41;;;;;;;8.25;2.47;;;;;;;21.42;100.00;101288.94;5208004;28;20113;-76
2023/09/23 09:26:12;;;;;;;6.50;2.65;;;;;;;20.74;100.00;101281.22;5205205;28;20021;-76
2023/09/23 09:28:44;;;;;;;7.65;1.73;;;;;;;20.30;100.00;101291.53;5206448;28;20101;-77
2023/09/23 09:31:19;;;;;;;13.48;3.00;;;;;;;19.96;100.00;101297.34;5206777;28;20018;-79
2023/09/23 09:33:53;;;;;;;7.47;2.20;;;;;;;19.48;100.00;101283.13;5210630;28;20485;-79
2023/09/23 09:36:50;;;;;;;7.47;2.13;;;;;;;19.52;100.00;101306.59;5211012;28;20041;-78
2023/09/23 09:39:28;;;;;;;8.07;2.10;;;;;;;19.16;100.00;101290.38;5207903;28;20030;-78
2023/09/23 09:42:03;;;;;;;4.77;1.77;;;;;;;18.90;100.00;101297.03;5202927;28;20045;-79
2023/09/23 09:44:36;;;;;;;4.97;1.83;;;;;;;18.60;100.00;101280.16;5207715;28;20034;-79
2023/09/23 09:47:08;;;;;;;6.73;2.20;;;;;;;18.44;100.00;101264.75;5210559;28;20045;-79
2023/09/23 09:49:43;;;;;;;5.23;1.70;;;;;;;18.40;100.00;101276.63;5211322;28;20809;-79
2023/09/23 09:52:15;;;;;;;9.43;1.83;;;;;;;18.40;100.00;101306.59;5210397;28;20853;-78
2023/09/23 09:54:47;;;;;;;7.87;1.90;;;;;;;18.39;100.00;101286.38;5222014;28;20022;-78
2023/09/23 09:57:23;;;;;;;8.93;1.87;;;;;;;18.48;100.00;101320.03;5214198;28;20030;-78
2023/09/23 10:00:20;;;;;;;7.30;2.17;;;;;;;18.50;100.00;101323.38;5230294;28;20049;-82
2023/09/23 10:03:05;;;;;;;6.30;2.30;;;;;;;18.44;100.00;101320.44;5214373;28;20032;-78
2023/09/23 10:05:50;;;;;;;9.87;2.07;;;;;;;18.53;100.00;101316.16;5204024;28;20091;-77
2023/09/23 10:08:38;;;;;;;6.73;1.93;;;;;;;18.54;100.00;101320.47;5211074;28;20377;-83
2023/09/23 10:11:09;;;;;;;7.33;1.67;;;;;;;18.09;100.00;101290.63;5203956;28;20058;-83
2023/09/23 10:13:46;;;;;;;9.20;2.13;;;;;;;18.43;100.00;101319.59;5230803;28;20141;-85
2023/09/23 10:16:27;;;;;;;8.10;1.80;;;;;;;18.18;100.00;101297.00;5232798;28;20037;-83
2023/09/23 10:18:58;;;;;;;7.90;2.03;;;;;;;18.48;100.00;101300.66;5216977;28;20026;-83
2023/09/23 10:21:34;;;;;;;5.37;1.47;;;;;;;18.64;100.00;101304.63;5217395;28;20669;-82
2023/09/23 10:24:34;;;;;;;6.50;1.90;;;;;;;18.90;100.00;101278.44;5213147;28;20026;-84
2023/09/23 10:30:50;;;;;;;7.90;2.10;;;;;;;18.93;100.00;101323.28;5189191;28;20041;-82
2023/09/23 10:33:30;;;;;;;5.07;1.70;;;;;;;18.50;100.00;101322.56;5220681;28;20117;-83
2023/09/23 10:36:03;;;;;;;6.90;1.90;;;;;;;18.37;100.00;101318.31;5214654;28;20037;-81
2023/09/23 10:45:16;;;;;;;11.27;2.37;;;;;;;18.21;100.00;101334.69;5197219;28;20406;-83
2023/09/23 10:47:50;;;;;;;7.17;2.07;;;;;;;18.11;100.00;101325.81;5212650;28;20124;-83
2023/09/23 10:50:24;;;;;;;6.25;2.03;;;;;;;18.01;100.00;101317.81;5215339;28;20034;-84
2023/09/23 10:53:08;;;;;;;10.63;2.05;;;;;;;18.18;100.00;101329.66;5214915;28;20026;-83
2023/09/23 10:55:40;;;;;;;5.43;2.22;;;;;;;18.10;100.00;101329.44;5214521;28;20026;-84
2023/09/23 10:58:27;;;;;;;9.43;1.87;;;;;;;18.33;100.00;101364.63;5215406;28;20022;-85
2023/09/23 11:01:27;;;;;;;9.73;1.80;;;;;;;18.66;100.00;101374.28;5216961;28;20129;-84
2023/09/23 11:04:05;;;;;;;6.37;1.70;;;;;;;17.97;100.00;101317.22;5236566;28;20042;-87
2023/09/23 11:06:43;;;;;;;9.33;2.50;;;;;;;18.13;100.00;101353.03;5230348;28;20042;-85
2023/09/23 11:09:49;;;;;;;9.00;2.10;;;;;;;18.38;100.00;101372.19;5216132;28;20056;-84
2023/09/23 11:12:43;;;;;;;;;;;;;;;;;;;;;
2023/09/23 11:15:32;;;;;;;8.50;1.97;;;;;;;18.50;100.00;101367.66;5215526;28;20029;-83
2023/09/23 11:36:03;;;;;;;6.20;1.90;;;;;;;18.96;100.00;101412.38;5210600;28;20038;-83
2023/09/23 11:38:40;;;;;;;5.37;2.13;;;;;;;19.02;100.00;101374.72;5216522;28;20112;-84
2023/09/23 11:44:53;;;;;;;7.95;2.30;;;;;;;18.88;100.00;101369.75;5213619;28;20305;-83
2023/09/23 11:47:28;;;;;;;7.20;2.37;;;;;;;18.89;100.00;101385.53;5211666;28;20025;-82
2023/09/23 11:49:59;;;;;;;9.20;1.93;;;;;;;18.97;100.00;101384.88;5230587;28;20068;-83
2023/09/23 11:52:34;;;;;;;5.67;1.60;;;;;;;19.00;100.00;101395.22;5214580;28;20022;-82
2023/09/23 11:55:05;;;;;;;4.37;1.67;;;;;;;18.91;100.00;101399.53;5225673;28;20029;-83
2023/09/23 12:01:06;;;;;;;5.37;1.80;;;;;;;19.09;100.00;101396.25;5224631;28;20046;-82
2023/09/23 12:04:09;;;;;;;;;;;;;;;;;;;;;
2023/09/23 12:06:40;;;;;;;4.80;1.83;;;;;;;19.02;100.00;101417.19;5214828;28;20419;-81
2023/09/23 12:13:10;;;;;;;4.67;1.90;;;;;;;19.06;100.00;101439.81;5196614;28;20052;-81
2023/09/23 12:15:54;;;;;;;;;;;;;;;;;;;;;
2023/09/23 12:18:33;;;;;;;7.70;2.17;;;;;;;18.80;100.00;101428.81;5214672;28;20040;-82
2023/09/23 12:21:05;;;;;;;4.47;1.77;;;;;;;18.52;100.00;101441.78;5209695;28;20034;-82
2023/09/23 12:24:03;;;;;;;3.47;1.10;;;;;;;18.85;100.00;101419.47;5220048;28;20650;-82
2023/09/23 12:31:04;;;;;;;7.70;1.80;;;;;;;19.16;100.00;101474.41;5175130;28;20090;-82
2023/09/23 12:41:40;;;;;;;7.47;2.90;;;;;;;18.93;100.00;101501.09;5070629;29;20530;-84
2023/09/23 12:44:27;;;;;;;4.17;1.50;;;;;;;18.77;100.00;101516.63;5049343;29;20060;-82